Whitehall, New York
Current Conditions -  °F | °C
As of 4:53 AM on Saturday 25 Oct 2014 (Local Time) from KGFL Reporting Station
Moderate Fog Moderate Fog  
Wind Chill: 39°   Ceiling: 200
Heat Index: 42°   Visibility: 0.25mi
Dew Point: 41°   Wind: 5mph
Humidity: 96%   Direction: 160°SSE
Pressure: 29.81"   Gusts: NA
Location:  43.56°N, 73.4°W
Report Text: KGFL 250853Z AUTO 16004KT 1/4SM FG VV002 06/05 A2981 RMK AO2 SLP101 T00560050 56003
Loading
Personal Weather Stations






























Interactive Weather Map
Tropical Storm Tracking
New forecast layout! Learn more

10-Day Weather Forecast

Advertisements
Track Severe Weather on mobile